Bookmark and Share
Track history (hours):
 

Theologos P .

Last reported at 2014-Apr-23 15:33 UTC. Time now 2014-Apr-23 15:44 UTC.
Position N 37°56' E 024°22'.

Length 118 m; draft 4.5 m.

Type: Passenger vessel. MMSI: 240521000.

NotesDate/timePositionNaut miles runAvg speedWind from/ knotsBaromVisibWave heightAir tempDewpointWater temp
2014-Apr-23 15:33N 37°56' E 024°22'16 2.4
2014-Apr-23 09:10N 38°01' E 024°04'1118.5
2014-Apr-23 08:33N 37°57' E 024°17'1918.7
2014-Apr-23 07:33N 37°53' E 024°40'1010.2
2014-Apr-23 06:33N 37°46' E 024°50'1919.2
2014-Apr-23 05:33N 37°33' E 025°07'1110.8
2014-Apr-23 04:34N 37°28' E 025°20'0 0.0
2014-Apr-23 03:34N 37°28' E 025°20'0 0.0
2014-Apr-23 02:34N 37°28' E 025°20'0 0.0
2014-Apr-23 01:32N 37°28' E 025°20'0 0.0
2014-Apr-23 00:33N 37°28' E 025°20'6 6.5
2014-Apr-22 23:33N 37°30' E 025°12'1313.4
2014-Apr-22 22:33N 37°37' E 024°57'2018.3
2014-Apr-22 21:27N 37°46' E 024°35'1818.5
2014-Apr-22 20:30N 37°55' E 024°15'5 2.5
2014-Apr-22 18:30N 37°59' E 024°11'1918.9
2014-Apr-22 17:30N 37°54' E 024°34'4 2.7
2014-Apr-22 16:09N 37°52' E 024°38'1118.5
2014-Apr-22 15:33N 37°55' E 024°24'31 6.1
2014-Apr-22 10:29N 37°39' E 024°57'1212.8
2014-Apr-22 09:33N 37°32' E 025°09'9 8.5
2014-Apr-22 08:33N 37°28' E 025°19'1514.8
2014-Apr-22 07:33N 37°36' E 025°03'42 3.2
2014-Apr-21 18:25N 37°57' E 024°17'18 8.2
2014-Apr-21 16:11N 37°52' E 024°39'1318.9
2014-Apr-21 15:29N 37°55' E 024°23'10 4.9
2014-Apr-21 13:25N 37°59' E 024°11'4214.6
2014-Apr-21 10:33N 37°39' E 024°57'1312.6
2014-Apr-21 09:33N 37°31' E 025°10'8 8.2
2014-Apr-21 08:33N 37°28' E 025°19'0 0.0
2014-Apr-21 07:33N 37°28' E 025°19'0 0.0
2014-Apr-21 06:34N 37°28' E 025°19'0 0.0
2014-Apr-21 05:33N 37°28' E 025°19'0 0.0
2014-Apr-21 04:33N 37°28' E 025°19'0 0.0
2014-Apr-21 03:33N 37°28' E 025°19'0 0.0
2014-Apr-21 02:33N 37°28' E 025°19'0 0.0
2014-Apr-21 01:32N 37°28' E 025°19'0 0.0
2014-Apr-21 00:33N 37°28' E 025°19'0 0.0
2014-Apr-20 23:33N 37°28' E 025°19'0 0.0
2014-Apr-20 22:32N 37°28' E 025°19'0 0.0
2014-Apr-20 21:33N 37°28' E 025°19'0 0.0
2014-Apr-20 20:33N 37°28' E 025°19'0 0.0
2014-Apr-20 19:32N 37°28' E 025°19'0 0.0
2014-Apr-20 18:32N 37°28' E 025°19'0 0.0
2014-Apr-20 17:33N 37°28' E 025°19'0 0.0
2014-Apr-20 16:32N 37°28' E 025°19'0 0.0
2014-Apr-20 15:33N 37°28' E 025°19'0 0.0
2014-Apr-20 14:33N 37°28' E 025°19'0 0.0
2014-Apr-20 13:32N 37°28' E 025°19'0 0.0
2014-Apr-20 12:33N 37°28' E 025°19'0 0.0
2014-Apr-20 11:33N 37°28' E 025°19'0 0.0
2014-Apr-20 10:33N 37°28' E 025°19'0 0.0
2014-Apr-20 09:33N 37°28' E 025°19'0 0.0
2014-Apr-20 08:32N 37°28' E 025°19'0 0.0
2014-Apr-20 07:33N 37°28' E 025°19'0 0.0
2014-Apr-20 06:33N 37°28' E 025°19'0 0.0
2014-Apr-20 05:33N 37°28' E 025°19'0 0.0
2014-Apr-20 04:33N 37°28' E 025°19'0 0.0
2014-Apr-20 03:33N 37°28' E 025°19'0 0.0
2014-Apr-20 02:32N 37°28' E 025°19'0 0.0
2014-Apr-20 01:32N 37°28' E 025°19'0 0.0
2014-Apr-20 00:32N 37°28' E 025°19'0 0.0
2014-Apr-19 23:33N 37°28' E 025°19'0 0.0
2014-Apr-19 22:32N 37°28' E 025°19'0 0.0
2014-Apr-19 21:32N 37°28' E 025°19'0 0.0
2014-Apr-19 20:33N 37°28' E 025°19'0 0.0
2014-Apr-19 19:32N 37°28' E 025°19'0 0.0
2014-Apr-19 18:33N 37°28' E 025°19'9 9.0
2014-Apr-19 17:33N 37°32' E 025°10'14 1.3
2014-Apr-19 06:14N 37°40' E 024°55'1318.5
2014-Apr-19 05:33N 37°32' E 025°07'1110.7
2014-Apr-19 04:33N 37°28' E 025°20'0 0.0
2014-Apr-19 03:32N 37°28' E 025°20'0 0.0
2014-Apr-19 02:33N 37°28' E 025°20'0 0.0
2014-Apr-19 01:31N 37°28' E 025°20'0 0.0
2014-Apr-19 00:32N 37°28' E 025°20'0 0.0
2014-Apr-18 23:33N 37°28' E 025°20'0 0.0
2014-Apr-18 22:34N 37°28' E 025°20'0 0.0
2014-Apr-18 21:32N 37°28' E 025°20'0 0.0
2014-Apr-18 20:33N 37°28' E 025°20'0 0.0
2014-Apr-18 19:32N 37°28' E 025°20'9 9.1
2014-Apr-18 18:33N 37°32' E 025°10'1817.1
2014-Apr-18 17:29N 37°43' E 024°52'19 3.3
2014-Apr-18 11:32N 37°51' E 024°29'1919.2
2014-Apr-18 10:31N 37°40' E 024°49'1919.3
2014-Apr-18 09:33N 37°30' E 025°10'4 3.8
2014-Apr-18 08:33N 37°29' E 025°15'1312.7
2014-Apr-18 07:34N 37°36' E 025°01'3114.7
2014-Apr-18 05:28N 37°55' E 024°30'16 2.6
2014-Apr-17 23:21N 37°58' E 024°10'1818.8
2014-Apr-17 22:23N 37°49' E 024°30'1719.5
2014-Apr-17 21:30N 37°40' E 024°49'1919.7
2014-Apr-17 20:33N 37°30' E 025°09'6 5.9
2014-Apr-17 19:33N 37°29' E 025°16'1111.0
2014-Apr-17 18:33N 37°34' E 025°04'3113.5
2014-Apr-17 16:17N 37°53' E 024°34'8 2.0
2014-Apr-17 12:16N 37°51' E 024°24'1419.1
2014-Apr-17 11:33N 37°44' E 024°39'1919.2
2014-Apr-17 10:33N 37°34' E 024°59'1717.0
2014-Apr-17 09:32N 37°28' E 025°19'6 6.3
2014-Apr-17 08:33N 37°30' E 025°12'1211.6
2014-Apr-17 07:33N 37°37' E 025°00'2914.3
2014-Apr-17 05:33N 37°54' E 024°31'3 0.5
2014-Apr-16 23:25N 37°51' E 024°28'1618.2
2014-Apr-16 22:33N 37°42' E 024°44'1818.3
2014-Apr-16 21:34N 37°32' E 025°04'1313.4
2014-Apr-16 20:33N 37°28' E 025°20'9 9.1
2014-Apr-16 19:33N 37°32' E 025°10'8 7.9
2014-Apr-16 18:33N 37°36' E 025°01'2512.0
2014-Apr-16 16:26N 37°51' E 024°35'8 1.0
2014-Apr-16 08:19N 37°55' E 024°26'2313.2
2014-Apr-16 06:33N 37°43' E 024°51'1818.0
2014-Apr-16 05:33N 37°32' E 025°10'9 9.1
2014-Apr-16 04:33N 37°28' E 025°20'0 0.0
2014-Apr-16 03:33N 37°28' E 025°20'0 0.0
2014-Apr-16 02:33N 37°28' E 025°20'0 0.0
2014-Apr-16 01:33N 37°28' E 025°20'0 0.0
2014-Apr-16 00:33N 37°28' E 025°20'0 0.0
2014-Apr-15 23:33N 37°28' E 025°20'0 0.0
2014-Apr-15 22:32N 37°28' E 025°20'0 0.0
2014-Apr-15 21:33N 37°28' E 025°20'0 0.0
2014-Apr-15 20:31N 37°28' E 025°20'4 3.8
2014-Apr-15 19:33N 37°29' E 025°15'1010.5
2014-Apr-15 18:33N 37°34' E 025°04'2613.2
2014-Apr-15 16:33N 37°52' E 024°39'1818.1
2014-Apr-15 15:33N 37°57' E 024°17'1 0.1
2014-Apr-15 07:34N 37°57' E 024°16'5814.6
2014-Apr-15 03:34N 37°28' E 025°20'0 0.0
2014-Apr-15 02:34N 37°28' E 025°20'0 0.0
2014-Apr-15 01:33N 37°28' E 025°20'0 0.0
2014-Apr-15 00:34N 37°28' E 025°20'0 0.0
2014-Apr-14 23:33N 37°28' E 025°20'0 0.0
2014-Apr-14 22:34N 37°28' E 025°20'0 0.0
2014-Apr-14 21:34N 37°28' E 025°20'0 0.0
2014-Apr-14 20:34N 37°28' E 025°20'0 0.0
2014-Apr-14 19:33N 37°28' E 025°20'4 4.3
2014-Apr-14 18:34N 37°29' E 025°15'1010.5
2014-Apr-14 17:34N 37°35' E 025°03'2713.1
2014-Apr-14 15:30N 37°52' E 024°38'1717.6
2014-Apr-14 14:32N 37°57' E 024°17'28 3.2
2014-Apr-14 05:32N 37°45' E 024°49'29 4.2
2014-Apr-13 22:33N 37°28' E 025°20'0 0.0
2014-Apr-13 21:33N 37°28' E 025°20'0 0.0
2014-Apr-13 20:33N 37°28' E 025°20'0 0.1
2014-Apr-13 19:32N 37°28' E 025°20'1312.7
2014-Apr-13 18:33N 37°33' E 025°05'1918.4
2014-Apr-13 17:32N 37°46' E 024°49'1110.6
2014-Apr-13 16:29N 37°52' E 024°37'  

Dump ship's entire track history

sailing weather and tide predictions

Theologos P . — SZNB — position and weather